createdAt,value
2023-04-19T00:00:21.440Z,13.34
2023-04-19T00:02:54.698Z,13.36
2023-04-19T00:05:27.003Z,13.38
2023-04-19T00:07:59.918Z,13.42
2023-04-19T00:10:31.931Z,13.38
2023-04-19T00:13:04.011Z,13.40
2023-04-19T00:15:36.046Z,13.43
2023-04-19T00:18:08.071Z,13.42
2023-04-19T00:20:40.134Z,13.44
2023-04-19T00:23:12.079Z,13.42
2023-04-19T00:25:46.065Z,13.45
2023-04-19T00:28:17.970Z,13.41
2023-04-19T00:30:49.928Z,13.30
2023-04-19T00:33:21.851Z,13.51
2023-04-19T00:35:53.770Z,13.49
2023-04-19T00:38:26.018Z,13.52
2023-04-19T00:40:59.100Z,13.51
2023-04-19T00:43:31.061Z,13.54
2023-04-19T00:46:03.358Z,13.52
2023-04-19T00:48:38.580Z,13.53
2023-04-19T00:51:10.742Z,13.53
2023-04-19T00:53:43.778Z,13.55
2023-04-19T00:56:17.751Z,13.53
2023-04-19T00:58:49.740Z,13.51
2023-04-19T01:01:21.962Z,13.49
2023-04-19T01:03:54.048Z,13.48
2023-04-19T01:06:28.194Z,13.50
2023-04-19T01:09:00.236Z,13.47
2023-04-19T01:11:32.156Z,13.43
2023-04-19T01:14:04.067Z,13.46
2023-04-19T01:16:36.400Z,13.49
2023-04-19T01:19:08.678Z,13.49
2023-04-19T01:21:40.655Z,13.49
2023-04-19T01:24:12.736Z,13.47
2023-04-19T01:26:44.808Z,13.45
2023-04-19T01:29:18.638Z,13.48
2023-04-19T01:31:54.057Z,13.50
2023-04-19T01:34:26.131Z,13.52
2023-04-19T01:36:58.077Z,13.46
2023-04-19T01:39:31.185Z,13.49
2023-04-19T01:42:04.412Z,13.42
2023-04-19T01:44:36.377Z,13.44
2023-04-19T01:47:08.382Z,13.46
2023-04-19T01:49:40.935Z,13.46
2023-04-19T01:52:12.856Z,13.45
2023-04-19T01:54:44.735Z,13.46
2023-04-19T01:57:16.744Z,13.43
2023-04-19T01:59:48.624Z,13.47
2023-04-19T02:02:20.900Z,13.47
2023-04-19T02:04:53.015Z,13.47
2023-04-19T02:07:24.958Z,13.47
2023-04-19T02:09:59.565Z,13.47
2023-04-19T02:12:32.361Z,13.46
2023-04-19T02:15:05.319Z,13.49
2023-04-19T02:17:37.353Z,13.48
2023-04-19T02:20:09.756Z,13.49
2023-04-19T02:22:41.707Z,13.47
2023-04-19T02:25:13.924Z,13.50
2023-04-19T02:27:45.893Z,13.53
2023-04-19T02:30:18.108Z,13.53
2023-04-19T02:32:50.281Z,13.53
2023-04-19T02:35:22.405Z,13.57
2023-04-19T02:37:54.387Z,13.59
2023-04-19T02:40:26.334Z,13.60
2023-04-19T02:42:58.257Z,13.63
2023-04-19T02:45:30.628Z,13.64
2023-04-19T02:48:02.915Z,13.63
2023-04-19T02:50:38.783Z,13.62
2023-04-19T02:53:10.728Z,13.59
2023-04-19T02:55:42.795Z,13.60
2023-04-19T02:58:14.737Z,13.61
2023-04-19T03:00:46.656Z,13.61
2023-04-19T03:03:18.631Z,13.63
2023-04-19T03:05:50.895Z,13.54
2023-04-19T03:08:22.830Z,13.53
2023-04-19T03:10:55.070Z,13.53
2023-04-19T03:13:26.968Z,13.35
2023-04-19T03:15:58.906Z,13.56
2023-04-19T03:18:30.879Z,13.54
2023-04-19T03:21:04.009Z,13.54
2023-04-19T03:23:35.940Z,13.54
2023-04-19T03:26:07.904Z,13.54
2023-04-19T03:28:39.839Z,13.55
2023-04-19T03:31:12.044Z,13.59
2023-04-19T03:33:44.168Z,13.59
2023-04-19T03:36:16.835Z,13.57
2023-04-19T03:38:48.840Z,13.56
2023-04-19T03:41:27.274Z,13.55
2023-04-19T03:43:59.618Z,13.56
2023-04-19T03:46:31.807Z,13.58
2023-04-19T03:49:03.875Z,13.48
2023-04-19T03:51:36.012Z,13.54
2023-04-19T03:54:08.077Z,13.53
2023-04-19T03:56:40.078Z,13.50
2023-04-19T03:59:12.030Z,13.50
2023-04-19T04:01:44.073Z,13.51
2023-04-19T04:04:16.512Z,13.50
2023-04-19T04:06:48.780Z,13.52
2023-04-19T04:09:20.719Z,13.48
2023-04-19T04:11:52.629Z,13.43
2023-04-19T04:14:24.750Z,13.49
2023-04-19T04:16:56.724Z,13.46
2023-04-19T04:19:28.606Z,13.42
2023-04-19T04:22:00.574Z,13.35
2023-04-19T04:24:41.450Z,13.31
2023-04-19T04:27:13.410Z,13.29
2023-04-19T04:29:46.003Z,13.20
2023-04-19T04:32:18.312Z,13.20
2023-04-19T04:34:50.689Z,13.53
2023-04-19T04:37:22.604Z,13.25
2023-04-19T04:39:54.618Z,13.23
2023-04-19T04:42:27.588Z,13.23
2023-04-19T04:45:01.593Z,13.25
2023-04-19T04:47:34.844Z,13.24
2023-04-19T04:50:07.901Z,13.28
2023-04-19T04:52:39.868Z,13.30
2023-04-19T04:55:11.831Z,13.23
2023-04-19T04:57:43.798Z,13.17
2023-04-19T05:00:16.626Z,13.15
2023-04-19T05:02:48.814Z,13.17
2023-04-19T05:05:20.992Z,13.16
2023-04-19T05:07:52.920Z,13.12
2023-04-19T05:10:24.804Z,13.07
2023-04-19T05:12:57.012Z,13.05
2023-04-19T05:15:28.966Z,12.99
2023-04-19T05:18:00.947Z,12.97
2023-04-19T05:20:34.027Z,12.90
2023-04-19T05:23:06.489Z,12.93
2023-04-19T05:25:38.391Z,12.91
2023-04-19T05:28:10.630Z,12.68
2023-04-19T05:30:42.833Z,12.67
2023-04-19T05:33:14.756Z,12.80
2023-04-19T05:35:46.701Z,12.85
2023-04-19T05:38:18.890Z,12.84
2023-04-19T05:40:50.828Z,12.81
2023-04-19T05:43:22.906Z,12.81
2023-04-19T05:45:54.860Z,12.86
2023-04-19T05:48:26.816Z,12.92
2023-04-19T05:50:59.714Z,12.96
2023-04-19T05:53:31.628Z,12.98
2023-04-19T05:56:03.768Z,12.97
2023-04-19T05:58:35.951Z,13.03
2023-04-19T06:01:07.882Z,12.97
2023-04-19T06:03:40.112Z,13.00
2023-04-19T06:06:12.186Z,13.00
2023-04-19T06:08:44.176Z,12.98
2023-04-19T06:11:24.934Z,13.00
2023-04-19T06:14:03.659Z,13.03
2023-04-19T06:16:35.671Z,13.03
2023-04-19T06:19:10.676Z,12.94
2023-04-19T06:21:42.584Z,13.09
2023-04-19T06:24:14.712Z,13.20
2023-04-19T06:26:48.399Z,13.33
2023-04-19T06:29:24.201Z,13.44
2023-04-19T06:31:56.314Z,13.46
2023-04-19T06:34:28.306Z,13.61
2023-04-19T06:37:00.452Z,13.66
2023-04-19T06:39:32.389Z,13.66
2023-04-19T06:42:04.401Z,13.87
2023-04-19T06:44:36.388Z,13.98
2023-04-19T06:47:08.311Z,14.06
2023-04-19T06:49:40.367Z,14.17
2023-04-19T06:52:12.395Z,14.22
2023-04-19T06:54:49.428Z,14.40
2023-04-19T06:57:21.461Z,14.50
2023-04-19T06:59:56.092Z,14.53
2023-04-19T07:02:28.456Z,14.55
2023-04-19T07:05:00.947Z,14.57
2023-04-19T07:07:33.468Z,14.69
2023-04-19T07:10:06.188Z,14.59
2023-04-19T07:12:38.185Z,14.69
2023-04-19T07:15:11.078Z,14.70
2023-04-19T07:17:43.067Z,14.80
2023-04-19T07:20:15.037Z,14.83
2023-04-19T07:22:47.390Z,14.94
2023-04-19T07:25:19.345Z,15.07
2023-04-19T07:27:54.685Z,14.99
2023-04-19T07:30:26.645Z,15.07
2023-04-19T07:32:58.673Z,15.14
2023-04-19T07:35:31.092Z,15.16
2023-04-19T07:38:03.036Z,15.32
2023-04-19T07:40:34.960Z,15.43
2023-04-19T07:43:08.081Z,15.49
2023-04-19T07:45:40.694Z,15.68
2023-04-19T07:48:12.828Z,15.80
2023-04-19T07:50:44.788Z,15.88
2023-04-19T07:53:18.264Z,15.86
2023-04-19T07:55:50.244Z,15.95
2023-04-19T07:58:22.180Z,15.97
2023-04-19T08:00:54.131Z,16.05
2023-04-19T08:03:26.361Z,16.21
2023-04-19T08:06:01.159Z,16.33
2023-04-19T08:08:34.142Z,16.58
2023-04-19T08:11:06.467Z,16.51
2023-04-19T08:13:39.949Z,16.59
2023-04-19T08:16:52.021Z,16.78
2023-04-19T08:19:04.289Z,16.91
2023-04-19T08:21:41.125Z,17.01
2023-04-19T08:24:13.657Z,16.96
2023-04-19T08:26:53.488Z,17.05
2023-04-19T08:29:25.900Z,17.03
2023-04-19T08:31:57.843Z,17.15
2023-04-19T08:34:29.827Z,17.34
2023-04-19T08:37:04.441Z,17.62
2023-04-19T08:39:37.108Z,17.80
2023-04-19T08:42:18.376Z,17.58
2023-04-19T08:47:59.013Z,17.57
2023-04-19T08:50:38.853Z,17.79
2023-04-19T08:53:25.734Z,17.85
2023-04-19T08:56:12.852Z,17.91
2023-04-19T08:59:03.827Z,17.91
2023-04-19T09:01:44.322Z,17.89
2023-04-19T09:04:35.471Z,17.97
2023-04-19T09:07:10.640Z,18.00
2023-04-19T09:09:55.697Z,17.91
2023-04-19T09:12:38.597Z,17.96
2023-04-19T09:15:11.475Z,17.88
2023-04-19T09:17:43.580Z,17.89
2023-04-19T09:20:15.563Z,17.98
2023-04-19T09:23:12.534Z,18.08
2023-04-19T09:28:37.136Z,18.32
2023-04-19T09:31:32.968Z,18.41
2023-04-19T09:34:32.091Z,18.37
2023-04-19T09:37:27.592Z,18.15
2023-04-19T09:40:28.140Z,18.49
2023-04-19T09:43:11.136Z,18.52
2023-04-19T09:45:52.640Z,18.54
2023-04-19T09:48:24.614Z,18.57
2023-04-19T09:51:05.977Z,18.60
2023-04-19T09:53:42.525Z,18.63
2023-04-19T09:56:14.634Z,18.61
2023-04-19T09:58:51.246Z,18.60
2023-04-19T10:01:28.734Z,18.64
2023-04-19T10:04:20.278Z,18.54
2023-04-19T10:07:28.439Z,18.72
2023-04-19T10:09:55.092Z,18.90
2023-04-19T10:12:58.473Z,18.93
2023-04-19T10:15:33.814Z,18.88
2023-04-19T10:18:15.901Z,18.89
2023-04-19T10:20:51.445Z,19.05
2023-04-19T10:23:23.660Z,19.00
2023-04-19T10:25:58.602Z,18.93
2023-04-19T10:28:34.195Z,18.88
2023-04-19T10:31:06.510Z,18.93
2023-04-19T10:33:39.855Z,18.93
2023-04-19T10:36:17.566Z,18.89
2023-04-19T10:38:55.779Z,18.97
2023-04-19T10:41:59.608Z,18.92
2023-04-19T10:44:31.657Z,19.07
2023-04-19T10:47:06.117Z,19.01
2023-04-19T10:49:47.567Z,19.09
2023-04-19T10:52:31.770Z,19.08
2023-04-19T10:55:06.071Z,19.32
2023-04-19T10:58:13.344Z,19.31
2023-04-19T11:00:45.423Z,19.38
2023-04-19T11:03:45.066Z,19.37
2023-04-19T11:06:27.426Z,19.39
2023-04-19T11:09:00.878Z,19.42
2023-04-19T11:11:36.388Z,19.39
2023-04-19T11:14:09.691Z,19.56
2023-04-19T11:16:45.742Z,19.43
2023-04-19T11:19:19.997Z,19.62
2023-04-19T11:21:52.043Z,19.58
2023-04-19T11:24:23.998Z,19.46
2023-04-19T11:26:57.735Z,19.43
2023-04-19T11:29:29.722Z,19.42
2023-04-19T11:32:01.867Z,19.48
2023-04-19T11:34:38.427Z,19.31
2023-04-19T11:37:11.647Z,19.22
2023-04-19T11:39:47.641Z,19.23
2023-04-19T11:42:22.630Z,19.36
2023-04-19T11:44:56.506Z,19.48
2023-04-19T11:47:28.815Z,19.57
2023-04-19T11:50:40.360Z,19.47
2023-04-19T11:53:24.218Z,19.46
2023-04-19T11:56:08.462Z,19.34
2023-04-19T11:58:48.281Z,19.31
2023-04-19T12:01:22.286Z,19.30
2023-04-19T12:03:58.736Z,19.28
2023-04-19T12:06:32.548Z,19.27
2023-04-19T12:09:09.410Z,19.31
2023-04-19T12:11:50.064Z,19.44
2023-04-19T12:14:23.832Z,19.47
2023-04-19T12:17:10.862Z,19.53
2023-04-19T12:19:46.141Z,19.57
2023-04-19T12:22:20.704Z,19.67
2023-04-19T12:24:54.222Z,19.73
2023-04-19T12:27:29.194Z,19.71
2023-04-19T12:30:01.152Z,19.72
2023-04-19T12:32:33.063Z,19.78
2023-04-19T12:35:05.559Z,19.81
2023-04-19T12:37:37.457Z,19.92
2023-04-19T12:40:10.281Z,20.06
2023-04-19T12:42:42.346Z,20.13
2023-04-19T12:45:14.999Z,20.32
2023-04-19T12:47:48.930Z,20.33
2023-04-19T12:50:20.972Z,20.20
2023-04-19T12:52:53.777Z,19.99
2023-04-19T12:55:26.261Z,20.01
2023-04-19T12:57:58.228Z,20.05
2023-04-19T13:00:30.422Z,20.11
2023-04-19T13:03:02.449Z,20.20
2023-04-19T13:05:34.588Z,20.21
2023-04-19T13:08:08.939Z,20.13
2023-04-19T13:10:40.887Z,20.08
2023-04-19T13:13:12.890Z,20.18
2023-04-19T13:15:45.760Z,20.16
2023-04-19T13:18:18.952Z,20.16
2023-04-19T13:20:51.085Z,20.15
2023-04-19T13:23:23.011Z,20.14
2023-04-19T13:25:54.922Z,20.22
2023-04-19T13:28:26.894Z,20.03
2023-04-19T13:30:58.859Z,20.23
2023-04-19T13:33:30.953Z,20.34
2023-04-19T13:36:03.238Z,20.44
2023-04-19T13:38:35.331Z,20.53
2023-04-19T13:41:07.466Z,20.49
2023-04-19T13:43:39.716Z,20.53
2023-04-19T13:46:11.701Z,20.67
2023-04-19T13:48:43.715Z,20.71
2023-04-19T13:51:15.973Z,20.81
2023-04-19T13:53:47.919Z,20.70
2023-04-19T13:56:19.953Z,20.67
2023-04-19T13:58:51.929Z,20.70
2023-04-19T14:01:24.009Z,20.67
2023-04-19T14:03:56.189Z,20.73
2023-04-19T14:06:28.387Z,20.70
2023-04-19T14:09:00.440Z,20.62
2023-04-19T14:11:34.308Z,20.57
2023-04-19T14:14:06.445Z,20.53
2023-04-19T14:16:38.418Z,20.47
2023-04-19T14:19:10.396Z,20.46
2023-04-19T14:21:42.340Z,20.57
2023-04-19T14:24:14.533Z,20.69
2023-04-19T14:26:52.018Z,20.74
2023-04-19T14:29:28.860Z,20.70
2023-04-19T14:32:10.314Z,20.70
2023-04-19T14:34:53.936Z,20.70
2023-04-19T14:37:26.754Z,20.70
2023-04-19T14:39:58.721Z,20.66
2023-04-19T14:42:31.049Z,20.59
2023-04-19T14:45:03.461Z,20.39
2023-04-19T14:47:35.584Z,20.42
2023-04-19T14:50:08.030Z,20.34
2023-04-19T14:52:39.965Z,20.26
2023-04-19T14:55:12.382Z,20.12
2023-04-19T14:57:44.287Z,20.12
2023-04-19T15:00:16.656Z,20.15
2023-04-19T15:02:48.600Z,20.14
2023-04-19T15:05:23.954Z,19.98
2023-04-19T15:07:56.482Z,20.20
2023-04-19T15:10:28.456Z,20.34
2023-04-19T15:13:00.365Z,20.34
2023-04-19T15:15:32.417Z,20.20
2023-04-19T15:18:04.520Z,20.22
2023-04-19T15:20:36.846Z,20.19
2023-04-19T15:23:08.952Z,20.15
2023-04-19T15:25:41.360Z,20.32
2023-04-19T15:28:13.333Z,20.37
2023-04-19T15:30:45.532Z,20.29
2023-04-19T15:33:17.532Z,20.25
2023-04-19T15:35:52.799Z,20.15
2023-04-19T15:38:28.009Z,20.12
2023-04-19T15:41:03.867Z,20.09
2023-04-19T15:43:35.758Z,20.00
2023-04-19T15:46:13.015Z,19.97
2023-04-19T15:48:46.923Z,19.98
2023-04-19T15:51:18.907Z,19.83
2023-04-19T15:53:51.206Z,19.86
2023-04-19T15:56:23.233Z,19.83
2023-04-19T15:58:55.305Z,19.82
2023-04-19T16:01:27.228Z,19.87
2023-04-19T16:03:59.505Z,19.79
2023-04-19T16:06:31.985Z,19.63
2023-04-19T16:09:03.956Z,19.53
2023-04-19T16:11:35.877Z,19.48
2023-04-19T16:14:07.864Z,19.51
2023-04-19T16:16:39.783Z,19.46
2023-04-19T16:19:11.955Z,19.43
2023-04-19T16:21:43.865Z,19.34
2023-04-19T16:24:15.877Z,19.25
2023-04-19T16:26:48.092Z,19.36
2023-04-19T16:29:20.048Z,19.41
2023-04-19T16:31:52.374Z,19.36
2023-04-19T16:34:25.472Z,19.29
2023-04-19T16:36:57.629Z,19.24
2023-04-19T16:39:29.554Z,19.28
2023-04-19T16:42:02.061Z,19.15
2023-04-19T16:44:33.994Z,19.31
2023-04-19T16:47:06.013Z,19.31
2023-04-19T16:49:37.953Z,19.28
2023-04-19T16:52:09.973Z,19.22
2023-04-19T16:54:43.602Z,19.19
2023-04-19T16:57:15.641Z,18.98
2023-04-19T16:59:48.035Z,18.99
2023-04-19T17:02:20.203Z,18.97
2023-04-19T17:04:52.418Z,18.90
2023-04-19T17:07:24.618Z,18.82
2023-04-19T17:09:56.680Z,18.77
2023-04-19T17:12:28.642Z,18.68
2023-04-19T17:15:00.549Z,18.61
2023-04-19T17:17:32.509Z,18.56
2023-04-19T17:20:06.189Z,18.54
2023-04-19T17:22:38.202Z,18.54
2023-04-19T17:25:10.283Z,18.55
2023-04-19T17:27:42.218Z,18.49
2023-04-19T17:30:14.558Z,18.45
2023-04-19T17:32:46.554Z,18.41
2023-04-19T17:35:18.682Z,18.48
2023-04-19T17:37:50.891Z,18.36
2023-04-19T17:40:22.940Z,18.55
2023-04-19T17:42:55.589Z,18.26
2023-04-19T17:45:27.534Z,18.06
2023-04-19T17:47:59.515Z,17.98
2023-04-19T17:50:31.552Z,17.90
2023-04-19T17:53:03.459Z,17.94
2023-04-19T17:55:35.482Z,17.92
2023-04-19T17:58:07.389Z,17.88
2023-04-19T18:00:39.406Z,17.87
2023-04-19T18:03:11.675Z,17.79
2023-04-19T18:05:43.998Z,17.66
2023-04-19T18:08:15.948Z,17.62
2023-04-19T18:10:47.939Z,17.52
2023-04-19T18:13:19.850Z,17.46
2023-04-19T18:15:51.781Z,17.46
2023-04-19T18:18:23.679Z,17.37
2023-04-19T18:20:55.749Z,17.35
2023-04-19T18:23:27.670Z,17.29
2023-04-19T18:26:04.049Z,17.24
2023-04-19T18:28:37.435Z,17.18
2023-04-19T18:31:09.879Z,17.18
2023-04-19T18:33:41.871Z,17.10
2023-04-19T18:36:13.883Z,16.93
2023-04-19T18:38:46.228Z,17.13
2023-04-19T18:41:18.265Z,17.02
2023-04-19T18:44:08.176Z,17.11
2023-04-19T18:46:42.467Z,17.03
2023-04-19T18:49:14.654Z,16.98
2023-04-19T18:51:46.712Z,16.93
2023-04-19T18:54:21.417Z,16.93
2023-04-19T18:59:28.238Z,16.86
2023-04-19T19:02:00.266Z,17.10
2023-04-19T19:04:51.301Z,16.78
2023-04-19T19:07:35.521Z,16.70
2023-04-19T19:10:19.500Z,16.71
2023-04-19T19:12:53.951Z,16.69
2023-04-19T19:15:26.124Z,16.69
2023-04-19T19:17:58.192Z,16.65
2023-04-19T19:20:30.981Z,16.62
2023-04-19T19:23:03.306Z,16.61
2023-04-19T19:25:35.333Z,16.51
2023-04-19T19:28:10.056Z,16.50
2023-04-19T19:30:44.953Z,16.43
2023-04-19T19:33:17.923Z,16.41
2023-04-19T19:35:50.025Z,16.35
2023-04-19T19:38:21.939Z,16.30
2023-04-19T19:41:34.770Z,16.28
2023-04-19T19:43:46.088Z,16.26
2023-04-19T19:46:18.185Z,16.13
2023-04-19T19:48:53.529Z,16.09
2023-04-19T19:51:44.205Z,16.07
2023-04-19T19:54:18.000Z,15.99
2023-04-19T19:59:29.480Z,15.87
2023-04-19T20:02:02.359Z,15.84
2023-04-19T20:04:38.835Z,15.85
2023-04-19T20:09:50.600Z,15.68
2023-04-19T20:12:22.687Z,15.68
2023-04-19T20:14:54.713Z,15.60
2023-04-19T20:17:26.788Z,15.58
2023-04-19T20:20:00.436Z,15.55
2023-04-19T20:22:32.394Z,15.47
2023-04-19T20:25:05.520Z,15.43
2023-04-19T20:27:37.500Z,15.43
2023-04-19T20:30:10.239Z,15.34
2023-04-19T20:32:42.901Z,15.06
2023-04-19T20:35:15.044Z,15.18
2023-04-19T20:37:47.456Z,15.12
2023-04-19T20:40:19.444Z,14.92
2023-04-19T20:42:51.517Z,15.01
2023-04-19T20:45:23.625Z,14.98
2023-04-19T20:47:56.191Z,14.98
2023-04-19T20:50:28.214Z,14.97
2023-04-19T20:53:00.716Z,14.94
2023-04-19T20:55:32.721Z,14.94
2023-04-19T20:58:04.670Z,14.90
2023-04-19T21:00:37.052Z,14.81
2023-04-19T21:03:09.239Z,14.85
2023-04-19T21:05:41.300Z,14.83
2023-04-19T21:08:15.059Z,14.59
2023-04-19T21:10:46.999Z,14.59
2023-04-19T21:13:18.897Z,14.68
2023-04-19T21:15:51.246Z,14.67
2023-04-19T21:18:24.592Z,14.60
2023-04-19T21:20:57.567Z,14.56
2023-04-19T21:23:29.517Z,14.48
2023-04-19T21:26:04.238Z,14.42
2023-04-19T21:28:36.308Z,14.38
2023-04-19T21:31:08.271Z,14.38
2023-04-19T21:33:40.273Z,14.29
2023-04-19T21:36:12.216Z,14.29
2023-04-19T21:38:44.133Z,14.28
2023-04-19T21:41:16.027Z,14.22
2023-04-19T21:43:47.932Z,14.19
2023-04-19T21:46:19.876Z,14.15
2023-04-19T21:48:53.565Z,14.12
2023-04-19T21:51:27.563Z,14.06
2023-04-19T21:53:59.561Z,14.08
2023-04-19T21:56:31.861Z,14.09
2023-04-19T21:59:03.791Z,13.96
2023-04-19T22:01:35.692Z,14.04
2023-04-19T22:04:08.187Z,14.01
2023-04-19T22:06:40.952Z,14.03
2023-04-19T22:09:13.788Z,13.94
2023-04-19T22:11:46.231Z,13.94
2023-04-19T22:14:18.631Z,13.90
2023-04-19T22:16:50.973Z,13.82
2023-04-19T22:19:26.208Z,13.78
2023-04-19T22:21:58.468Z,13.79
2023-04-19T22:24:30.460Z,13.77
2023-04-19T22:27:03.042Z,13.75
2023-04-19T22:29:36.251Z,13.73
2023-04-19T22:32:08.237Z,13.64
2023-04-19T22:34:41.250Z,13.60
2023-04-19T22:37:13.191Z,13.52
2023-04-19T22:39:45.097Z,13.32
2023-04-19T22:42:17.115Z,13.46
2023-04-19T22:44:49.223Z,13.43
2023-04-19T22:47:21.370Z,13.40
2023-04-19T22:49:54.585Z,13.37
2023-04-19T22:52:27.776Z,13.39
2023-04-19T22:54:59.716Z,13.41
2023-04-19T22:57:31.628Z,13.39
2023-04-19T23:00:05.500Z,13.38
2023-04-19T23:02:38.682Z,13.22
2023-04-19T23:05:11.405Z,13.28
2023-04-19T23:07:45.143Z,13.17
2023-04-19T23:10:18.337Z,13.17
2023-04-19T23:12:50.629Z,13.22
2023-04-19T23:15:24.804Z,13.24
2023-04-19T23:17:56.854Z,13.17
2023-04-19T23:20:29.149Z,13.19
2023-04-19T23:23:01.311Z,13.18
2023-04-19T23:25:33.484Z,13.18
2023-04-19T23:28:05.407Z,13.15
2023-04-19T23:30:37.268Z,13.14
2023-04-19T23:33:09.175Z,13.14
2023-04-19T23:35:41.110Z,13.06
2023-04-19T23:38:13.059Z,13.12
2023-04-19T23:40:46.519Z,13.06
2023-04-19T23:43:18.429Z,12.97
2023-04-19T23:45:50.435Z,12.85
2023-04-19T23:48:22.491Z,12.88
2023-04-19T23:50:54.507Z,12.67
2023-04-19T23:53:26.493Z,12.87
2023-04-19T23:55:58.479Z,12.87
2023-04-19T23:58:30.495Z,12.87
